createdAt,value
2023-03-13T00:01:19.987Z,98201.06
2023-03-13T00:03:46.923Z,98201.72
2023-03-13T00:06:15.292Z,98201.53
2023-03-13T00:08:42.275Z,98191.47
2023-03-13T00:11:10.237Z,98201.06
2023-03-13T00:13:37.501Z,98194.38
2023-03-13T00:16:06.457Z,98195.41
2023-03-13T00:18:33.267Z,98184.88
2023-03-13T00:21:00.536Z,98185.34
2023-03-13T00:23:29.266Z,98181.50
2023-03-13T00:25:57.308Z,98172.81
2023-03-13T00:28:23.897Z,98167.97
2023-03-13T00:30:50.471Z,98172.78
2023-03-13T00:33:17.078Z,98174.28
2023-03-13T00:35:43.767Z,98175.97
2023-03-13T00:38:10.304Z,98165.44
2023-03-13T00:40:38.360Z,98154.03
2023-03-13T00:43:04.940Z,98157.22
2023-03-13T00:45:31.686Z,98164.66
2023-03-13T00:47:58.273Z,98143.63
2023-03-13T00:50:24.878Z,98140.69
2023-03-13T00:52:51.462Z,98146.44
2023-03-13T00:55:17.973Z,98129.66
2023-03-13T00:57:45.859Z,98133.06
2023-03-13T01:00:13.400Z,98127.50
2023-03-13T01:02:42.276Z,98124.38
2023-03-13T01:05:10.197Z,98116.22
2023-03-13T01:07:36.732Z,98116.47
2023-03-13T01:10:03.491Z,98109.81
2023-03-13T01:12:30.357Z,98111.50
2023-03-13T01:14:58.316Z,98106.75
2023-03-13T01:17:25.010Z,98086.31
2023-03-13T01:19:51.595Z,98089.13
2023-03-13T01:22:18.331Z,98074.09
2023-03-13T01:24:45.088Z,98062.00
2023-03-13T01:27:11.677Z,98064.38
2023-03-13T01:29:38.289Z,98052.16
2023-03-13T01:32:07.007Z,98043.56
2023-03-13T01:34:33.539Z,98040.66
2023-03-13T01:37:00.110Z,98033.06
2023-03-13T01:39:26.829Z,98029.34
2023-03-13T01:41:53.386Z,98018.72
2023-03-13T01:44:23.163Z,98014.88
2023-03-13T01:46:49.771Z,97999.97
2023-03-13T01:49:21.540Z,98016.34
2023-03-13T01:51:52.325Z,98011.50
2023-03-13T01:54:23.501Z,97999.75
2023-03-13T01:56:53.372Z,98006.19
2023-03-13T01:59:23.174Z,98007.78
2023-03-13T02:01:52.336Z,97999.28
2023-03-13T02:04:23.551Z,98003.09
2023-03-13T02:06:54.837Z,97996.88
2023-03-13T02:09:24.658Z,97984.44
2023-03-13T02:11:57.143Z,97978.00
2023-03-13T02:14:26.940Z,97984.22
2023-03-13T02:16:54.833Z,97971.34
2023-03-13T02:19:30.109Z,97976.75
2023-03-13T02:22:07.243Z,97973.81
2023-03-13T02:24:39.724Z,97976.81
2023-03-13T02:27:07.724Z,97964.41
2023-03-13T02:29:34.477Z,97945.63
2023-03-13T02:32:01.044Z,97940.88
2023-03-13T02:34:32.354Z,97932.19
2023-03-13T02:37:00.208Z,97948.91
2023-03-13T02:39:28.429Z,97935.91
2023-03-13T02:41:55.629Z,97931.84
2023-03-13T02:44:23.634Z,97928.22
2023-03-13T02:46:52.065Z,97934.88
2023-03-13T02:49:21.904Z,97928.31
2023-03-13T02:51:48.939Z,97922.09
2023-03-13T02:54:19.141Z,97903.44
2023-03-13T02:56:48.002Z,97904.06
2023-03-13T02:59:14.815Z,97911.75
2023-03-13T03:01:42.924Z,97899.84
2023-03-13T03:04:09.486Z,97892.94
2023-03-13T03:06:36.044Z,97882.53
2023-03-13T03:09:03.090Z,97866.78
2023-03-13T03:11:29.826Z,97878.69
2023-03-13T03:13:56.444Z,97865.69
2023-03-13T03:16:23.087Z,97868.25
2023-03-13T03:18:51.058Z,97853.28
2023-03-13T03:21:17.577Z,97835.97
2023-03-13T03:23:44.115Z,97830.53
2023-03-13T03:26:10.705Z,97832.09
2023-03-13T03:28:37.247Z,97831.84
2023-03-13T03:31:04.626Z,97824.25
2023-03-13T03:33:31.187Z,97809.59
2023-03-13T03:36:01.332Z,97803.84
2023-03-13T03:38:27.921Z,97809.50
2023-03-13T03:40:54.661Z,97810.91
2023-03-13T03:43:21.190Z,97812.50
2023-03-13T03:45:47.926Z,97826.56
2023-03-13T03:48:14.610Z,97798.94
2023-03-13T03:50:41.179Z,97809.59
2023-03-13T03:53:09.710Z,97795.75
2023-03-13T03:55:36.293Z,97808.31
2023-03-13T03:58:02.890Z,97800.06
2023-03-13T04:00:29.445Z,97803.03
2023-03-13T04:02:56.064Z,97797.22
2023-03-13T04:05:23.590Z,97802.97
2023-03-13T04:07:50.482Z,97803.59
2023-03-13T04:10:18.556Z,97796.91
2023-03-13T04:12:45.113Z,97781.44
2023-03-13T04:15:11.736Z,97779.44
2023-03-13T04:17:38.654Z,97779.06
2023-03-13T04:20:06.403Z,97757.50
2023-03-13T04:22:32.974Z,97752.69
2023-03-13T04:24:59.571Z,97747.00
2023-03-13T04:27:27.477Z,97734.50
2023-03-13T04:29:54.032Z,97720.22
2023-03-13T04:32:20.834Z,97710.38
2023-03-13T04:34:47.381Z,97704.44
2023-03-13T04:37:14.006Z,97716.97
2023-03-13T04:39:40.566Z,97723.50
2023-03-13T04:42:07.329Z,97739.44
2023-03-13T04:44:35.266Z,97713.97
2023-03-13T04:47:02.089Z,97727.13
2023-03-13T04:49:28.672Z,97713.72
2023-03-13T04:51:55.798Z,97714.97
2023-03-13T04:54:22.674Z,97696.53
2023-03-13T04:56:49.450Z,97710.59
2023-03-13T04:59:16.508Z,97699.06
2023-03-13T05:01:44.787Z,97693.28
2023-03-13T05:04:11.826Z,97690.56
2023-03-13T05:06:38.732Z,97670.53
2023-03-13T05:09:05.311Z,97672.25
2023-03-13T05:11:31.882Z,97681.72
2023-03-13T05:13:58.509Z,97680.31
2023-03-13T05:16:25.160Z,97674.44
2023-03-13T05:18:53.117Z,97653.16
2023-03-13T05:21:19.835Z,97654.47
2023-03-13T05:23:46.405Z,97651.03
2023-03-13T05:26:13.016Z,97631.84
2023-03-13T05:28:39.700Z,97629.91
2023-03-13T05:31:06.336Z,97624.44
2023-03-13T05:33:32.981Z,97644.72
2023-03-13T05:36:01.072Z,97637.78
2023-03-13T05:38:27.736Z,97639.72
2023-03-13T05:40:54.291Z,97644.38
2023-03-13T05:43:20.936Z,97640.72
2023-03-13T05:45:47.491Z,97638.72
2023-03-13T05:48:14.064Z,97655.28
2023-03-13T05:50:40.655Z,97649.44
2023-03-13T05:53:08.600Z,97650.19
2023-03-13T05:55:35.320Z,97662.28
2023-03-13T05:58:01.868Z,97676.31
2023-03-13T06:00:28.631Z,97650.38
2023-03-13T06:02:55.172Z,97653.44
2023-03-13T06:05:21.768Z,97657.00
2023-03-13T06:07:49.438Z,97646.94
2023-03-13T06:10:17.610Z,97644.16
2023-03-13T06:12:44.201Z,97611.13
2023-03-13T06:15:12.450Z,97618.16
2023-03-13T06:17:39.287Z,97623.72
2023-03-13T06:20:06.849Z,97614.44
2023-03-13T06:22:33.481Z,97606.78
2023-03-13T06:25:00.182Z,97597.34
2023-03-13T06:27:28.075Z,97600.84
2023-03-13T06:29:54.669Z,97596.69
2023-03-13T06:32:21.327Z,97595.13
2023-03-13T06:34:47.978Z,97606.72
2023-03-13T06:37:14.651Z,97614.50
2023-03-13T06:39:41.343Z,97610.28
2023-03-13T06:42:08.179Z,97622.44
2023-03-13T06:44:36.311Z,97649.31
2023-03-13T06:47:03.017Z,97650.09
2023-03-13T06:49:29.595Z,97623.78
2023-03-13T06:51:57.771Z,97629.94
2023-03-13T06:54:24.488Z,97622.28
2023-03-13T06:56:51.440Z,97615.63
2023-03-13T06:59:17.960Z,97620.28
2023-03-13T07:01:46.033Z,97607.19
2023-03-13T07:04:13.896Z,97617.97
2023-03-13T07:06:40.493Z,97603.25
2023-03-13T07:09:07.224Z,97611.13
2023-03-13T07:11:33.762Z,97610.47
2023-03-13T07:14:13.620Z,97615.19
2023-03-13T07:16:42.893Z,97617.69
2023-03-13T07:19:10.873Z,97610.34
2023-03-13T07:21:37.635Z,97610.78
2023-03-13T07:24:04.865Z,97606.22
2023-03-13T07:26:31.494Z,97619.81
2023-03-13T07:28:58.185Z,97621.34
2023-03-13T07:31:24.816Z,97613.34
2023-03-13T07:33:51.886Z,97618.38
2023-03-13T07:36:19.933Z,97629.25
2023-03-13T07:38:47.902Z,97616.88
2023-03-13T07:41:14.653Z,97619.31
2023-03-13T07:43:41.808Z,97608.84
2023-03-13T07:46:11.841Z,97621.38
2023-03-13T07:48:39.762Z,97619.47
2023-03-13T07:51:08.105Z,97617.25
2023-03-13T07:53:36.017Z,97624.63
2023-03-13T07:56:04.668Z,97620.91
2023-03-13T07:58:33.520Z,97616.66
2023-03-13T08:01:00.160Z,97619.06
2023-03-13T08:03:27.621Z,97616.00
2023-03-13T08:06:01.299Z,97606.75
2023-03-13T08:08:28.810Z,97617.31
2023-03-13T08:11:01.476Z,97629.81
2023-03-13T08:13:28.040Z,97624.84
2023-03-13T08:16:03.142Z,97655.25
2023-03-13T08:18:29.814Z,97631.97
2023-03-13T08:20:56.377Z,97634.69
2023-03-13T08:23:22.885Z,97642.53
2023-03-13T08:25:49.489Z,97621.91
2023-03-13T08:28:17.338Z,97646.41
2023-03-13T08:30:43.920Z,97634.69
2023-03-13T08:33:10.528Z,97646.00
2023-03-13T08:35:37.086Z,97646.78
2023-03-13T08:38:03.659Z,97645.63
2023-03-13T08:40:30.232Z,97649.09
2023-03-13T08:42:56.808Z,97656.53
2023-03-13T08:45:27.677Z,97644.09
2023-03-13T08:47:54.264Z,97651.97
2023-03-13T08:50:20.797Z,97655.56
2023-03-13T08:52:47.342Z,97636.97
2023-03-13T08:55:14.103Z,97656.13
2023-03-13T08:57:40.831Z,97646.94
2023-03-13T09:00:08.650Z,97641.16
2023-03-13T09:02:36.691Z,97642.78
2023-03-13T09:05:03.578Z,97626.44
2023-03-13T09:07:30.159Z,97627.94
2023-03-13T09:09:56.687Z,97621.34
2023-03-13T09:12:30.700Z,97613.63
2023-03-13T09:14:57.886Z,97629.38
2023-03-13T09:17:24.531Z,97622.88
2023-03-13T09:20:00.103Z,97607.88
2023-03-13T09:22:27.132Z,97610.53
2023-03-13T09:24:53.685Z,97605.06
2023-03-13T09:27:20.272Z,97604.97
2023-03-13T09:29:46.858Z,97585.50
2023-03-13T09:32:13.430Z,97598.47
2023-03-13T09:34:40.028Z,97580.19
2023-03-13T09:37:07.924Z,97573.13
2023-03-13T09:39:34.531Z,97569.97
2023-03-13T09:42:10.508Z,97581.63
2023-03-13T09:44:42.626Z,97574.19
2023-03-13T09:47:13.409Z,97574.94
2023-03-13T09:49:42.399Z,97573.03
2023-03-13T09:52:17.303Z,97590.94
2023-03-13T09:54:49.471Z,97588.13
2023-03-13T09:57:24.117Z,97595.47
2023-03-13T09:59:55.938Z,97574.78
2023-03-13T10:02:29.358Z,97555.25
2023-03-13T10:05:02.332Z,97568.53
2023-03-13T10:07:30.259Z,97547.06
2023-03-13T10:09:56.870Z,97560.34
2023-03-13T10:12:27.724Z,97558.00
2023-03-13T10:15:07.865Z,97558.38
2023-03-13T10:17:35.927Z,97560.69
2023-03-13T10:20:15.569Z,97571.59
2023-03-13T10:22:46.392Z,97568.09
2023-03-13T10:25:25.014Z,97563.78
2023-03-13T10:27:51.624Z,97559.06
2023-03-13T10:30:23.351Z,97565.34
2023-03-13T10:32:49.910Z,97575.16
2023-03-13T10:35:21.705Z,97570.06
2023-03-13T10:37:49.662Z,97568.53
2023-03-13T10:40:21.530Z,97573.22
2023-03-13T10:42:50.779Z,97579.91
2023-03-13T10:45:20.073Z,97562.41
2023-03-13T10:47:54.817Z,97569.81
2023-03-13T10:50:24.307Z,97595.19
2023-03-13T10:52:52.951Z,97564.38
2023-03-13T10:55:21.602Z,97581.56
2023-03-13T10:57:57.693Z,97570.66
2023-03-13T11:00:30.371Z,97550.41
2023-03-13T11:02:57.267Z,97554.72
2023-03-13T11:05:36.614Z,97534.97
2023-03-13T11:08:20.454Z,97540.09
2023-03-13T11:10:58.607Z,97533.81
2023-03-13T11:13:37.051Z,97534.16
2023-03-13T11:16:18.397Z,97522.47
2023-03-13T11:19:10.862Z,97525.13
2023-03-13T11:21:49.419Z,97516.53
2023-03-13T11:24:24.407Z,97515.03
2023-03-13T11:27:04.669Z,97520.91
2023-03-13T11:29:40.607Z,97532.63
2023-03-13T11:32:19.726Z,97514.66
2023-03-13T11:34:51.599Z,97515.81
2023-03-13T11:37:21.326Z,97506.84
2023-03-13T11:39:59.814Z,97513.41
2023-03-13T11:42:45.530Z,97496.69
2023-03-13T11:45:31.665Z,97518.19
2023-03-13T11:48:07.708Z,97501.38
2023-03-13T11:50:39.667Z,97512.28
2023-03-13T11:53:31.789Z,97497.84
2023-03-13T11:56:08.291Z,97502.53
2023-03-13T11:58:47.523Z,97480.66
2023-03-13T12:01:17.393Z,97484.56
2023-03-13T12:03:56.040Z,97484.16
2023-03-13T12:06:29.760Z,97481.78
2023-03-13T12:09:03.378Z,97490.41
2023-03-13T12:11:36.377Z,97500.13
2023-03-13T12:14:09.407Z,97489.94
2023-03-13T12:16:43.288Z,97486.03
2023-03-13T12:19:15.216Z,97467.69
2023-03-13T12:21:48.660Z,97467.66
2023-03-13T12:24:22.925Z,97471.16
2023-03-13T12:26:54.349Z,97457.50
2023-03-13T12:29:31.810Z,97462.56
2023-03-13T12:32:04.601Z,97457.50
2023-03-13T12:34:40.790Z,97433.31
2023-03-13T12:37:16.906Z,97430.97
2023-03-13T12:39:49.505Z,97446.16
2023-03-13T12:42:27.994Z,97434.78
2023-03-13T12:44:55.742Z,97426.22
2023-03-13T12:47:31.460Z,97425.06
2023-03-13T12:50:14.853Z,97410.28
2023-03-13T12:52:58.601Z,97398.97
2023-03-13T12:55:47.719Z,97400.16
2023-03-13T12:58:37.975Z,97380.25
2023-03-13T13:01:07.494Z,97397.84
2023-03-13T13:03:38.121Z,97405.66
2023-03-13T13:06:09.917Z,97376.41
2023-03-13T13:08:39.649Z,97367.41
2023-03-13T13:11:55.163Z,97383.06
2023-03-13T13:15:00.998Z,97376.81
2023-03-13T13:17:56.213Z,97385.00
2023-03-13T13:20:45.448Z,97384.97
2023-03-13T13:23:25.199Z,97361.94
2023-03-13T13:25:53.952Z,97364.66
2023-03-13T13:28:34.647Z,97356.84
2023-03-13T13:31:46.407Z,97354.13
2023-03-13T13:34:46.427Z,97347.47
2023-03-13T13:37:28.112Z,97347.88
2023-03-13T13:40:09.413Z,97335.00
2023-03-13T13:42:47.578Z,97353.75
2023-03-13T13:45:26.314Z,97353.75
2023-03-13T13:48:16.419Z,97304.56
2023-03-13T13:51:15.243Z,97315.88
2023-03-13T13:53:44.581Z,97315.84
2023-03-13T13:56:37.614Z,97327.56
2023-03-13T13:59:24.082Z,97323.66
2023-03-13T14:02:11.828Z,97310.34
2023-03-13T14:04:44.003Z,97308.38
2023-03-13T14:07:17.745Z,97305.69
2023-03-13T14:09:50.750Z,97309.19
2023-03-13T14:12:26.264Z,97295.56
2023-03-13T14:15:12.763Z,97292.81
2023-03-13T14:17:41.309Z,97280.34
2023-03-13T14:20:28.806Z,97286.19
2023-03-13T14:23:00.034Z,97270.16
2023-03-13T14:25:42.436Z,97274.47
2023-03-13T14:28:19.581Z,97280.34
2023-03-13T14:30:47.862Z,97264.69
2023-03-13T14:33:14.526Z,97277.19
2023-03-13T14:35:42.766Z,97261.22
2023-03-13T14:38:17.098Z,97274.88
2023-03-13T14:40:43.734Z,97245.19
2023-03-13T14:43:21.036Z,97246.00
2023-03-13T14:45:48.802Z,97239.72
2023-03-13T14:48:21.325Z,97241.69
2023-03-13T14:50:53.123Z,97229.56
2023-03-13T14:53:28.767Z,97227.63
2023-03-13T14:56:10.965Z,97231.13
2023-03-13T14:58:37.832Z,97208.09
2023-03-13T15:01:15.074Z,97200.69
2023-03-13T15:03:44.420Z,97197.94
2023-03-13T15:06:21.278Z,97196.38
2023-03-13T15:08:49.734Z,97177.25
2023-03-13T15:11:22.153Z,97178.44
2023-03-13T15:13:48.771Z,97165.50
2023-03-13T15:16:17.725Z,97153.78
2023-03-13T15:18:44.398Z,97146.38
2023-03-13T15:21:24.612Z,97150.66
2023-03-13T15:23:53.373Z,97133.81
2023-03-13T15:26:21.277Z,97137.16
2023-03-13T15:28:48.273Z,97124.34
2023-03-13T15:31:15.215Z,97126.44
2023-03-13T15:33:43.025Z,97135.88
2023-03-13T15:36:10.414Z,97112.81
2023-03-13T15:38:38.946Z,97130.38
2023-03-13T15:41:05.797Z,97122.84
2023-03-13T15:43:32.371Z,97127.28
2023-03-13T15:45:58.954Z,97131.69
2023-03-13T15:48:27.927Z,97119.63
2023-03-13T15:50:56.358Z,97107.16
2023-03-13T15:53:25.142Z,97089.97
2023-03-13T15:55:54.839Z,97072.75
2023-03-13T15:58:22.291Z,97074.69
2023-03-13T16:00:48.945Z,97073.53
2023-03-13T16:03:16.704Z,97066.16
2023-03-13T16:05:43.695Z,97075.91
2023-03-13T16:08:18.488Z,97060.66
2023-03-13T16:10:54.145Z,97070.44
2023-03-13T16:13:21.234Z,97064.94
2023-03-13T16:15:48.018Z,97062.97
2023-03-13T16:18:19.955Z,97059.03
2023-03-13T16:20:47.266Z,97070.38
2023-03-13T16:23:14.181Z,97062.56
2023-03-13T16:25:40.990Z,97028.63
2023-03-13T16:28:11.577Z,97020.78
2023-03-13T16:30:38.952Z,97035.22
2023-03-13T16:33:05.511Z,97026.28
2023-03-13T16:35:32.340Z,97021.22
2023-03-13T16:37:59.473Z,97027.09
2023-03-13T16:40:29.120Z,97024.84
2023-03-13T16:42:55.667Z,97007.28
2023-03-13T16:45:23.739Z,97004.22
2023-03-13T16:47:50.610Z,96995.63
2023-03-13T16:50:25.967Z,96986.66
2023-03-13T16:52:54.630Z,96999.56
2023-03-13T16:55:22.707Z,97000.69
2023-03-13T16:57:49.225Z,97009.72
2023-03-13T17:00:18.874Z,97006.25
2023-03-13T17:02:47.265Z,97010.53
2023-03-13T17:05:14.420Z,97009.75
2023-03-13T17:07:42.045Z,96994.94
2023-03-13T17:10:16.514Z,96994.56
2023-03-13T17:12:43.204Z,97002.00
2023-03-13T17:15:10.309Z,97019.19
2023-03-13T17:17:37.506Z,96999.69
2023-03-13T17:20:07.052Z,97005.19
2023-03-13T17:22:33.753Z,96986.44
2023-03-13T17:25:00.328Z,96975.91
2023-03-13T17:27:26.959Z,96972.44
2023-03-13T17:29:53.491Z,96970.53
2023-03-13T17:32:20.085Z,96985.34
2023-03-13T17:34:46.635Z,96974.41
2023-03-13T17:37:17.034Z,96963.84
2023-03-13T17:39:44.009Z,96967.75
2023-03-13T17:42:10.605Z,96979.84
2023-03-13T17:44:37.149Z,96975.59
2023-03-13T17:47:03.721Z,96978.75
2023-03-13T17:49:30.261Z,96978.75
2023-03-13T17:51:56.813Z,96988.50
2023-03-13T17:54:24.845Z,96972.91
2023-03-13T17:56:51.555Z,96967.84
2023-03-13T17:59:18.826Z,96978.34
2023-03-13T18:01:45.915Z,96988.09
2023-03-13T18:04:12.900Z,96965.84
2023-03-13T18:06:41.837Z,96992.72
2023-03-13T18:09:13.985Z,96988.81
2023-03-13T18:11:42.377Z,96999.75
2023-03-13T18:14:09.703Z,96994.28
2023-03-13T18:16:38.107Z,96990.00
2023-03-13T18:19:05.241Z,96972.88
2023-03-13T18:21:32.720Z,96969.78
2023-03-13T18:23:59.274Z,96980.31
2023-03-13T18:26:29.661Z,96958.50
2023-03-13T18:28:57.952Z,96968.66
2023-03-13T18:31:24.563Z,96944.88
2023-03-13T18:33:51.076Z,96924.22
2023-03-13T18:36:19.339Z,96928.94
2023-03-13T18:38:46.663Z,96928.16
2023-03-13T18:41:13.283Z,96905.56
2023-03-13T18:43:39.834Z,96887.66
2023-03-13T18:46:13.764Z,96882.94
2023-03-13T18:48:40.464Z,96877.94
2023-03-13T18:51:07.294Z,96863.91
2023-03-13T18:53:33.880Z,96871.31
2023-03-13T18:56:09.401Z,96861.56
2023-03-13T18:58:35.932Z,96886.09
2023-03-13T19:01:02.525Z,96899.78
2023-03-13T19:03:30.620Z,96890.06
2023-03-13T19:05:57.183Z,96892.41
2023-03-13T19:08:23.849Z,96895.53
2023-03-13T19:10:50.594Z,96876.41
2023-03-13T19:13:17.238Z,96862.34
2023-03-13T19:15:43.806Z,96863.88
2023-03-13T19:18:11.960Z,96888.47
2023-03-13T19:20:39.825Z,96915.38
2023-03-13T19:23:09.407Z,96922.75
2023-03-13T19:25:36.031Z,96927.47
2023-03-13T19:28:02.806Z,96948.13
2023-03-13T19:30:29.383Z,96952.78
2023-03-13T19:32:56.050Z,96945.41
2023-03-13T19:35:22.785Z,96952.41
2023-03-13T19:37:50.701Z,96956.28
2023-03-13T19:40:19.704Z,96967.59
2023-03-13T19:42:46.283Z,96955.50
2023-03-13T19:45:13.362Z,96943.06
2023-03-13T19:47:40.012Z,96946.97
2023-03-13T19:50:12.970Z,96932.94
2023-03-13T19:52:39.559Z,96940.31
2023-03-13T19:55:08.818Z,96940.72
2023-03-13T19:57:35.369Z,96951.63
2023-03-13T20:00:01.980Z,96920.47
2023-03-13T20:02:28.570Z,96885.41
2023-03-13T20:04:55.281Z,96879.16
2023-03-13T20:07:21.877Z,96850.31
2023-03-13T20:09:48.454Z,96883.38
2023-03-13T20:12:16.396Z,96910.63
2023-03-13T20:14:42.935Z,96904.44
2023-03-13T20:17:09.569Z,96898.59
2023-03-13T20:19:36.282Z,96878.75
2023-03-13T20:22:02.818Z,96874.50
2023-03-13T20:24:30.132Z,96861.63
2023-03-13T20:26:56.656Z,96848.38
2023-03-13T20:29:24.583Z,96853.44
2023-03-13T20:31:52.734Z,96890.06
2023-03-13T20:34:19.544Z,96868.25
2023-03-13T20:36:46.168Z,96855.41
2023-03-13T20:39:12.716Z,96881.88
2023-03-13T20:41:39.226Z,96864.75
2023-03-13T20:44:05.964Z,96848.78
2023-03-13T20:46:33.871Z,96839.84
2023-03-13T20:49:00.557Z,96850.75
2023-03-13T20:51:27.177Z,96853.84
2023-03-13T20:53:53.837Z,96828.56
2023-03-13T20:56:20.556Z,96833.22
2023-03-13T20:58:47.083Z,96853.09
2023-03-13T21:01:13.748Z,96866.31
2023-03-13T21:03:41.827Z,96866.72
2023-03-13T21:06:10.304Z,96875.28
2023-03-13T21:08:38.691Z,96868.28
2023-03-13T21:11:11.775Z,96871.00
2023-03-13T21:13:38.284Z,96871.41
2023-03-13T21:16:05.584Z,96878.03
2023-03-13T21:18:32.387Z,96867.53
2023-03-13T21:21:04.001Z,96852.75
2023-03-13T21:23:30.594Z,96852.72
2023-03-13T21:25:57.679Z,96846.53
2023-03-13T21:28:24.357Z,96848.06
2023-03-13T21:30:53.770Z,96828.97
2023-03-13T21:33:20.578Z,96822.38
2023-03-13T21:35:49.174Z,96828.97
2023-03-13T21:38:17.395Z,96839.88
2023-03-13T21:40:44.166Z,96822.75
2023-03-13T21:43:10.829Z,96814.97
2023-03-13T21:45:37.448Z,96809.50
2023-03-13T21:48:04.174Z,96814.16
2023-03-13T21:50:30.716Z,96817.66
2023-03-13T21:52:57.283Z,96820.34
2023-03-13T21:55:25.199Z,96830.47
2023-03-13T21:57:51.772Z,96844.47
2023-03-13T22:00:18.736Z,96837.06
2023-03-13T22:02:45.309Z,96841.31
2023-03-13T22:05:11.922Z,96831.97
2023-03-13T22:07:38.438Z,96805.94
2023-03-13T22:10:05.976Z,96821.84
2023-03-13T22:12:33.890Z,96839.31
2023-03-13T22:15:00.477Z,96835.03
2023-03-13T22:17:27.061Z,96842.81
2023-03-13T22:19:53.633Z,96851.41
2023-03-13T22:22:20.235Z,96850.19
2023-03-13T22:24:46.870Z,96859.09
2023-03-13T22:27:13.469Z,96854.88
2023-03-13T22:29:41.452Z,96859.88
2023-03-13T22:32:08.127Z,96861.81
2023-03-13T22:34:34.753Z,96870.34
2023-03-13T22:37:01.339Z,96859.88
2023-03-13T22:39:27.939Z,96858.34
2023-03-13T22:41:54.516Z,96845.56
2023-03-13T22:44:21.725Z,96838.97
2023-03-13T22:46:49.888Z,96843.63
2023-03-13T22:49:16.407Z,96863.75
2023-03-13T22:51:43.010Z,96871.16
2023-03-13T22:54:09.605Z,96873.84
2023-03-13T22:56:36.331Z,96862.94
2023-03-13T22:59:02.885Z,96849.41
2023-03-13T23:01:29.848Z,96858.31
2023-03-13T23:03:57.954Z,96870.81
2023-03-13T23:06:25.876Z,96876.69
2023-03-13T23:08:52.981Z,96879.00
2023-03-13T23:11:20.118Z,96856.47
2023-03-13T23:13:46.745Z,96854.53
2023-03-13T23:16:13.646Z,96864.22
2023-03-13T23:18:40.773Z,96861.78
2023-03-13T23:21:10.789Z,96854.44
2023-03-13T23:23:37.868Z,96861.03
2023-03-13T23:26:06.620Z,96858.69
2023-03-13T23:28:33.682Z,96852.47
2023-03-13T23:31:00.463Z,96845.44
2023-03-13T23:33:28.389Z,96826.03
2023-03-13T23:35:54.995Z,96828.34
2023-03-13T23:38:22.947Z,96811.66
2023-03-13T23:40:49.623Z,96789.91
2023-03-13T23:43:16.132Z,96789.88
2023-03-13T23:45:42.907Z,96806.19
2023-03-13T23:48:09.438Z,96801.91
2023-03-13T23:50:36.452Z,96788.66
2023-03-13T23:53:03.116Z,96785.56
2023-03-13T23:55:30.973Z,96782.03
2023-03-13T23:57:57.541Z,96788.25
